Airfield :
LOGIN :

Register | Disclaimer

   EN    FR    IT 

 










Legend :    VFR   Marginal VFR   IFR   Intensive IFR   Very Intensive IFR
Visi :
Ceiling :
>= 8 km
>= 3000ft
5 to 8 km
1000 to 3000 ft
1500m to 5 km
500 to 1000 ft
800 to 1500m
200 to 500 ft
< 800m
< 200 ft
Symbols :   Thunderstorms  Fog  Heavy snow  Heavy precipitations  Wind > 20 kt
SIGMETs :     Misc.  Thunderstorms  Icing  Turbulence  Mountain Waves  Volcanic Ashes






- Airport Elevation : 1411 ft
- IATA code : SZG


LOWS - Salzburg

CURRENT METAR :
  • 230050Z AUTO 16005KT 9999 FEW032 BKN090 18/18 Q1021

EXPIRED METARs :
  • 230020Z AUTO 15005KT 9999 FEW003 SCT032 BKN090 18/18 Q1021
  • 222350Z AUTO 14004KT 100V180 9999 FEW002 BKN034 19/18 Q1021
  • 222320Z AUTO 15005KT 8000 -RA FEW002 SCT032 BKN046 19/18 Q1021 RERA
  • 222250Z AUTO 15005KT 110V170 7000 +RA FEW004 BKN040 19/18 Q1021
  • 222220Z AUTO 25002KT 7000 -RA FEW004 BKN044 19/19 Q1021 REDZ RERA
  • 222150Z AUTO VRB01KT 5000 RA FEW001 BKN050 19/19 Q1021
  • 222120Z AUTO VRB02KT 6000 +RA FEW007 SCT026 BKN036 19/19 Q1021 RESHRA TEMPO 4000 SHRA
  • 222050Z AUTO 18005KT 9999 FEW032 SCT038 BKN050 19/19 Q1021 TEMPO 4000 SHRA

TAF TAF LOWS
Valid from the 23 at 00:00 until the 24 at 00:00 UTC


222315Z 2300/2324 16005KT 9999 BKN050 TX23/2315Z TN17/2303Z
TEMPO 2300/2311 SHRA
BECMG 2307/2309 32008KT
TEMPO 2322/2324 SHRA



MET'MAP, your aeronautical weather chart ! - Copyright ORBIFLY December 2007 - Disclaimer

ORBIFLY MET'MAP TEAM :

Programming & Development : Alexandra Zaïnal
Original concept : Baudouin d'Aumeries
Technical & hardware support : Manuel Goepfert
Assistance : Marc-Olivier Méhu




SOURCES & CREDITS :

   NOAA